createdAt,value
2019-04-29T00:02:00.483Z,94.70
2019-04-29T00:04:29.479Z,94.50
2019-04-29T00:06:58.678Z,94.40
2019-04-29T00:09:30.846Z,94.20
2019-04-29T00:11:58.919Z,94.30
2019-04-29T00:14:28.220Z,94.30
2019-04-29T00:16:58.868Z,94.10
2019-04-29T00:19:29.486Z,93.90
2019-04-29T00:22:00.140Z,94.10
2019-04-29T00:24:29.213Z,94.20
2019-04-29T00:26:58.205Z,94.30
2019-04-29T00:29:27.203Z,94.40
2019-04-29T00:31:56.303Z,94.40
2019-04-29T00:34:26.405Z,94.50
2019-04-29T00:37:00.941Z,94.40
2019-04-29T00:39:31.575Z,94.50
2019-04-29T00:42:08.658Z,94.40
2019-04-29T00:44:37.555Z,94.40
2019-04-29T00:47:06.504Z,94.50
2019-04-29T00:49:35.647Z,94.40
2019-04-29T00:52:04.735Z,94.40
2019-04-29T00:54:41.125Z,94.50
2019-04-29T00:57:16.028Z,94.40
2019-04-29T00:59:44.232Z,94.30
2019-04-29T01:02:13.413Z,94.50
2019-04-29T01:04:42.392Z,94.40
2019-04-29T01:07:11.502Z,94.40
2019-04-29T01:09:40.933Z,94.40
2019-04-29T01:12:10.075Z,94.50
2019-04-29T01:14:39.105Z,94.50
2019-04-29T01:17:08.211Z,94.50
2019-04-29T01:19:37.291Z,94.60
2019-04-29T01:22:06.384Z,94.60
2019-04-29T01:24:35.338Z,94.60
2019-04-29T01:27:06.319Z,94.70
2019-04-29T01:29:35.720Z,94.70
2019-04-29T01:32:06.305Z,94.60
2019-04-29T01:34:36.882Z,94.50
2019-04-29T01:37:05.774Z,94.50
2019-04-29T01:39:43.691Z,94.60
2019-04-29T01:42:14.311Z,94.10
2019-04-29T01:44:43.298Z,94.00
2019-04-29T01:47:12.204Z,93.90
2019-04-29T01:49:41.094Z,93.90
2019-04-29T01:52:09.976Z,94.00
2019-04-29T01:54:38.923Z,94.10
2019-04-29T01:57:08.071Z,94.00
2019-04-29T01:59:37.165Z,94.10
2019-04-29T02:02:06.573Z,94.00
2019-04-29T02:04:35.510Z,94.10
2019-04-29T02:07:04.597Z,94.10
2019-04-29T02:09:46.742Z,94.00
2019-04-29T02:12:15.662Z,94.00
2019-04-29T02:14:44.646Z,94.10
2019-04-29T02:17:13.741Z,94.20
2019-04-29T02:19:42.836Z,94.20
2019-04-29T02:22:19.309Z,93.90
2019-04-29T02:24:55.729Z,93.90
2019-04-29T02:27:24.770Z,94.10
2019-04-29T02:29:53.651Z,94.10
2019-04-29T02:32:22.663Z,94.10
2019-04-29T02:34:51.652Z,94.00
2019-04-29T02:37:25.072Z,94.10
2019-04-29T02:39:58.339Z,94.20
2019-04-29T02:42:35.020Z,94.10
2019-04-29T02:45:07.084Z,94.00
2019-04-29T02:47:36.181Z,94.00
2019-04-29T02:50:07.229Z,94.10
2019-04-29T02:52:36.532Z,94.20
2019-04-29T02:55:08.897Z,94.30
2019-04-29T02:57:39.535Z,94.30
2019-04-29T03:00:11.290Z,94.30
2019-04-29T03:02:42.127Z,94.30
2019-04-29T03:05:12.904Z,94.50
2019-04-29T03:07:42.263Z,94.60
2019-04-29T03:10:11.561Z,94.70
2019-04-29T03:12:40.763Z,94.90
2019-04-29T03:15:09.860Z,95.10
2019-04-29T03:17:39.026Z,95.00
2019-04-29T03:20:09.998Z,95.20
2019-04-29T03:22:43.313Z,95.40
2019-04-29T03:25:12.384Z,95.50
2019-04-29T03:27:41.488Z,95.50
2019-04-29T03:30:10.975Z,95.50
2019-04-29T03:32:39.903Z,95.60
2019-04-29T03:35:08.997Z,95.50
2019-04-29T03:37:38.229Z,95.50
2019-04-29T03:40:07.374Z,95.60
2019-04-29T03:42:36.472Z,95.60
2019-04-29T03:45:08.102Z,95.70
2019-04-29T03:47:37.124Z,96.20
2019-04-29T03:50:06.910Z,95.80
2019-04-29T03:52:35.927Z,96.00
2019-04-29T03:55:06.257Z,96.20
2019-04-29T03:57:36.691Z,96.10
2019-04-29T04:00:07.929Z,96.10
2019-04-29T04:02:47.471Z,96.40
2019-04-29T04:05:30.596Z,96.50
2019-04-29T04:08:04.412Z,96.70
2019-04-29T04:10:33.810Z,96.70
2019-04-29T04:13:02.903Z,96.70
2019-04-29T04:15:32.005Z,96.80
2019-04-29T04:18:05.614Z,96.80
2019-04-29T04:20:35.004Z,96.80
2019-04-29T04:23:03.997Z,96.70
2019-04-29T04:25:32.873Z,96.80
2019-04-29T04:28:01.828Z,96.60
2019-04-29T04:30:30.835Z,96.60
2019-04-29T04:32:59.777Z,96.90
2019-04-29T04:35:28.866Z,96.80
2019-04-29T04:37:57.739Z,96.70
2019-04-29T04:40:31.157Z,96.90
2019-04-29T04:43:00.149Z,96.80
2019-04-29T04:45:29.037Z,97.50
2019-04-29T04:47:58.048Z,97.50
2019-04-29T04:50:27.129Z,97.50
2019-04-29T04:52:56.094Z,97.30
2019-04-29T04:55:26.615Z,97.40
2019-04-29T04:57:55.540Z,97.50
2019-04-29T05:00:26.178Z,97.60
2019-04-29T05:02:55.220Z,97.80
2019-04-29T05:05:24.187Z,98.00
2019-04-29T05:07:53.260Z,97.90
2019-04-29T05:10:22.359Z,97.90
2019-04-29T05:12:51.458Z,98.10
2019-04-29T05:15:20.549Z,98.10
2019-04-29T05:17:52.744Z,98.00
2019-04-29T05:20:20.293Z,97.90
2019-04-29T05:23:01.228Z,97.80
2019-04-29T05:25:31.380Z,97.60
2019-04-29T05:28:01.055Z,97.80
2019-04-29T05:30:30.182Z,97.80
2019-04-29T05:32:59.276Z,97.60
2019-04-29T05:35:29.732Z,97.00
2019-04-29T05:38:09.245Z,96.80
2019-04-29T05:40:39.781Z,96.60
2019-04-29T05:43:10.254Z,96.90
2019-04-29T05:45:53.029Z,96.60
2019-04-29T05:48:21.938Z,96.00
2019-04-29T05:50:53.211Z,95.70
2019-04-29T05:53:23.897Z,95.50
2019-04-29T05:56:04.785Z,95.60
2019-04-29T05:58:37.787Z,95.50
2019-04-29T06:01:05.973Z,95.20
2019-04-29T06:03:37.864Z,95.20
2019-04-29T06:06:05.455Z,95.10
2019-04-29T06:08:38.557Z,95.00
2019-04-29T06:11:04.872Z,94.90
2019-04-29T06:13:33.824Z,94.80
2019-04-29T06:16:02.734Z,94.90
2019-04-29T06:18:31.837Z,94.80
2019-04-29T06:21:08.743Z,95.00
2019-04-29T06:23:31.359Z,94.90
2019-04-29T06:26:00.244Z,95.00
2019-04-29T06:28:29.207Z,94.70
2019-04-29T06:30:58.085Z,94.40
2019-04-29T06:33:29.167Z,94.50
2019-04-29T06:35:57.615Z,94.20
2019-04-29T06:38:26.717Z,94.40
2019-04-29T06:40:55.597Z,94.50
2019-04-29T06:43:28.431Z,94.40
2019-04-29T06:45:55.174Z,94.30
2019-04-29T06:48:24.093Z,93.90
2019-04-29T06:51:05.289Z,93.30
2019-04-29T06:53:34.213Z,93.50
2019-04-29T06:56:03.243Z,93.20
2019-04-29T06:58:32.469Z,93.50
2019-04-29T07:01:03.118Z,93.40
2019-04-29T07:03:32.350Z,93.40
2019-04-29T07:06:01.374Z,93.20
2019-04-29T07:08:30.268Z,93.10
2019-04-29T07:11:01.250Z,92.90
2019-04-29T07:13:29.721Z,92.60
2019-04-29T07:15:58.787Z,92.80
2019-04-29T07:18:27.681Z,92.60
2019-04-29T07:20:56.598Z,92.60
2019-04-29T07:23:25.473Z,92.40
2019-04-29T07:25:54.851Z,92.20
2019-04-29T07:28:23.792Z,92.30
2019-04-29T07:31:01.743Z,91.60
2019-04-29T07:33:24.494Z,91.90
2019-04-29T07:35:53.532Z,92.10
2019-04-29T07:38:22.601Z,92.20
2019-04-29T07:40:52.926Z,92.20
2019-04-29T07:43:21.845Z,92.30
2019-04-29T07:46:03.725Z,92.30
2019-04-29T07:48:31.961Z,92.00
2019-04-29T07:51:04.131Z,91.80
2019-04-29T07:53:40.176Z,92.00
2019-04-29T07:56:06.322Z,92.10
2019-04-29T07:58:33.156Z,91.60
2019-04-29T08:01:02.129Z,91.50
2019-04-29T08:03:31.180Z,91.00
2019-04-29T08:06:00.177Z,90.70
2019-04-29T08:08:31.559Z,90.70
2019-04-29T08:11:00.456Z,90.70
2019-04-29T08:13:31.297Z,90.60
2019-04-29T08:16:00.232Z,90.60
2019-04-29T08:18:29.144Z,90.70
2019-04-29T08:20:58.373Z,90.90
2019-04-29T08:23:27.532Z,90.90
2019-04-29T08:25:57.363Z,90.90
2019-04-29T08:28:27.168Z,90.80
2019-04-29T08:30:56.102Z,90.80
2019-04-29T08:33:25.053Z,90.10
2019-04-29T08:35:54.244Z,90.00
2019-04-29T08:38:23.343Z,89.60
2019-04-29T08:40:52.436Z,88.10
2019-04-29T08:43:32.290Z,89.80
2019-04-29T08:46:02.761Z,86.50
2019-04-29T08:48:31.756Z,86.20
2019-04-29T08:51:00.730Z,84.80
2019-04-29T08:53:29.664Z,86.40
2019-04-29T08:55:58.533Z,86.30
2019-04-29T08:58:27.468Z,86.90
2019-04-29T09:00:57.647Z,85.90
2019-04-29T09:03:39.626Z,87.10
2019-04-29T09:06:17.464Z,85.50
2019-04-29T09:08:54.656Z,84.10
2019-04-29T09:11:17.100Z,84.40
2019-04-29T09:13:46.205Z,84.80
2019-04-29T09:16:15.106Z,84.50
2019-04-29T09:18:44.019Z,83.40
2019-04-29T09:21:13.210Z,83.70
2019-04-29T09:23:42.076Z,84.00
2019-04-29T09:26:18.891Z,85.10
2019-04-29T09:28:49.839Z,82.80
2019-04-29T09:31:19.111Z,83.70
2019-04-29T09:33:49.123Z,84.40
2019-04-29T09:36:18.644Z,83.60
2019-04-29T09:38:47.527Z,85.40
2019-04-29T09:41:21.338Z,86.30
2019-04-29T09:44:05.420Z,86.00
2019-04-29T09:46:36.217Z,85.00
2019-04-29T09:49:05.526Z,83.60
2019-04-29T09:51:34.635Z,81.20
2019-04-29T09:54:03.576Z,80.50
2019-04-29T09:56:34.674Z,79.00
2019-04-29T09:59:20.955Z,79.00
2019-04-29T10:01:55.090Z,78.40
2019-04-29T10:04:26.096Z,78.10
2019-04-29T10:06:56.583Z,78.00
2019-04-29T10:09:25.457Z,76.90
2019-04-29T10:11:54.412Z,77.20
2019-04-29T10:14:23.322Z,77.80
2019-04-29T10:17:11.208Z,76.30
2019-04-29T10:22:38.995Z,70.40
2019-04-29T10:25:08.708Z,70.80
2019-04-29T10:27:37.580Z,69.50
2019-04-29T10:30:09.080Z,68.20
2019-04-29T10:32:42.254Z,67.90
2019-04-29T10:35:10.750Z,65.10
2019-04-29T10:37:39.975Z,64.70
2019-04-29T10:40:11.718Z,67.70
2019-04-29T10:42:44.799Z,65.00
2019-04-29T10:45:24.358Z,66.00
2019-04-29T10:48:00.977Z,65.30
2019-04-29T10:50:34.317Z,63.20
2019-04-29T10:53:03.221Z,64.70
2019-04-29T10:55:33.138Z,67.30
2019-04-29T10:58:02.239Z,65.60
2019-04-29T11:00:52.846Z,66.50
2019-04-29T11:03:25.104Z,63.20
2019-04-29T11:06:01.779Z,63.60
2019-04-29T11:08:33.738Z,63.20
2019-04-29T11:11:03.635Z,64.40
2019-04-29T11:13:32.541Z,61.30
2019-04-29T11:16:01.574Z,64.80
2019-04-29T11:18:30.557Z,61.40
2019-04-29T11:20:59.458Z,63.40
2019-04-29T11:23:29.966Z,59.90
2019-04-29T11:26:16.985Z,59.10
2019-04-29T11:28:46.985Z,59.00
2019-04-29T11:31:19.333Z,58.90
2019-04-29T11:34:01.753Z,56.80
2019-04-29T11:36:30.948Z,56.80
2019-04-29T11:38:59.845Z,58.40
2019-04-29T11:41:30.551Z,59.60
2019-04-29T11:43:59.845Z,57.10
2019-04-29T11:46:28.768Z,58.30
2019-04-29T11:48:59.328Z,57.60
2019-04-29T11:51:34.114Z,57.10
2019-04-29T11:54:08.230Z,58.40
2019-04-29T11:56:34.939Z,54.90
2019-04-29T11:59:09.149Z,57.40
2019-04-29T12:01:51.635Z,59.00
2019-04-29T12:04:28.701Z,60.70
2019-04-29T12:06:58.185Z,58.50
2019-04-29T12:09:30.567Z,57.00
2019-04-29T12:11:58.095Z,54.60
2019-04-29T12:14:28.622Z,54.20
2019-04-29T12:16:59.101Z,54.60
2019-04-29T12:19:29.697Z,54.50
2019-04-29T12:21:58.915Z,55.30
2019-04-29T12:24:27.816Z,54.60
2019-04-29T12:26:56.951Z,55.40
2019-04-29T12:29:25.844Z,54.00
2019-04-29T12:31:56.289Z,54.60
2019-04-29T12:34:32.964Z,55.70
2019-04-29T12:37:02.071Z,55.70
2019-04-29T12:39:43.329Z,56.20
2019-04-29T12:42:12.066Z,56.10
2019-04-29T12:44:45.792Z,54.50
2019-04-29T12:47:26.249Z,55.80
2019-04-29T12:49:48.208Z,53.70
2019-04-29T12:52:17.628Z,53.50
2019-04-29T12:54:47.730Z,53.60
2019-04-29T12:57:18.881Z,54.00
2019-04-29T12:59:47.303Z,54.50
2019-04-29T13:02:24.980Z,54.90
2019-04-29T13:05:14.457Z,56.00
2019-04-29T13:07:44.983Z,54.70
2019-04-29T13:10:18.956Z,53.20
2019-04-29T13:12:47.847Z,52.10
2019-04-29T13:15:21.668Z,51.00
2019-04-29T13:18:03.257Z,52.20
2019-04-29T13:20:22.859Z,52.90
2019-04-29T13:22:51.801Z,51.20
2019-04-29T13:25:20.976Z,53.00
2019-04-29T13:27:49.902Z,52.10
2019-04-29T13:30:20.356Z,53.30
2019-04-29T13:32:49.266Z,51.40
2019-04-29T13:35:18.137Z,53.40
2019-04-29T13:37:47.072Z,53.40
2019-04-29T13:40:18.280Z,53.60
2019-04-29T13:42:49.241Z,53.90
2019-04-29T13:45:36.036Z,54.90
2019-04-29T13:48:12.551Z,53.40
2019-04-29T13:50:45.954Z,54.50
2019-04-29T13:53:16.583Z,55.20
2019-04-29T13:55:49.220Z,54.10
2019-04-29T13:58:16.099Z,53.70
2019-04-29T14:00:59.424Z,54.40
2019-04-29T14:03:33.779Z,55.70
2019-04-29T14:06:04.693Z,52.90
2019-04-29T14:08:33.713Z,52.60
2019-04-29T14:11:02.685Z,52.10
2019-04-29T14:13:31.585Z,52.50
2019-04-29T14:16:02.015Z,53.40
2019-04-29T14:18:34.774Z,53.90
2019-04-29T14:21:01.579Z,52.00
2019-04-29T14:23:30.473Z,52.90
2019-04-29T14:25:59.411Z,53.40
2019-04-29T14:28:28.328Z,53.50
2019-04-29T14:30:57.301Z,51.30
2019-04-29T14:33:30.969Z,51.80
2019-04-29T14:36:01.508Z,52.40
2019-04-29T14:38:30.358Z,50.70
2019-04-29T14:40:59.319Z,49.60
2019-04-29T14:43:50.523Z,49.80
2019-04-29T14:46:28.637Z,50.60
2019-04-29T14:49:03.869Z,49.70
2019-04-29T14:51:36.578Z,49.40
2019-04-29T14:54:01.388Z,51.10
2019-04-29T14:56:30.834Z,52.40
2019-04-29T14:59:06.651Z,49.70
2019-04-29T15:01:31.981Z,48.60
2019-04-29T15:04:17.174Z,47.00
2019-04-29T15:06:36.274Z,48.00
2019-04-29T15:09:07.984Z,47.30
2019-04-29T15:11:41.188Z,48.00
2019-04-29T15:14:26.423Z,48.00
2019-04-29T15:17:03.430Z,48.80
2019-04-29T15:19:49.355Z,49.00
2019-04-29T15:22:18.148Z,46.40
2019-04-29T15:24:47.229Z,46.60
2019-04-29T15:27:16.192Z,45.90
2019-04-29T15:29:45.084Z,46.90
2019-04-29T15:32:17.922Z,49.80
2019-04-29T15:34:48.163Z,49.20
2019-04-29T15:37:15.248Z,49.30
2019-04-29T15:39:46.253Z,45.30
2019-04-29T15:42:14.897Z,46.00
2019-04-29T15:44:43.834Z,46.00
2019-04-29T15:47:12.728Z,46.80
2019-04-29T15:49:42.572Z,47.20
2019-04-29T15:52:11.533Z,48.30
2019-04-29T15:54:40.408Z,47.10
2019-04-29T15:57:14.890Z,47.60
2019-04-29T15:59:48.645Z,46.60
2019-04-29T16:02:10.575Z,47.30
2019-04-29T16:04:47.211Z,48.50
2019-04-29T16:07:25.338Z,48.00
2019-04-29T16:10:01.818Z,48.70
2019-04-29T16:12:45.280Z,50.00
2019-04-29T16:15:11.912Z,47.80
2019-04-29T16:17:40.819Z,46.90
2019-04-29T16:20:09.702Z,46.20
2019-04-29T16:22:39.337Z,48.80
2019-04-29T16:25:10.917Z,48.70
2019-04-29T16:27:41.017Z,50.50
2019-04-29T16:30:18.230Z,47.80
2019-04-29T16:32:42.907Z,47.40
2019-04-29T16:35:11.935Z,46.10
2019-04-29T16:37:40.865Z,49.30
2019-04-29T16:40:09.870Z,49.20
2019-04-29T16:42:52.443Z,49.40
2019-04-29T16:45:22.947Z,48.80
2019-04-29T16:47:51.814Z,49.90
2019-04-29T16:50:20.979Z,49.40
2019-04-29T16:52:49.871Z,48.90
2019-04-29T16:55:18.771Z,48.30
2019-04-29T16:57:48.201Z,47.60
2019-04-29T17:00:19.292Z,49.40
2019-04-29T17:02:48.211Z,49.40
2019-04-29T17:05:17.373Z,50.20
2019-04-29T17:07:46.255Z,49.90
2019-04-29T17:10:29.439Z,49.80
2019-04-29T17:12:59.967Z,51.30
2019-04-29T17:15:29.443Z,51.10
2019-04-29T17:17:58.578Z,51.90
2019-04-29T17:20:27.596Z,51.90
2019-04-29T17:22:56.510Z,52.80
2019-04-29T17:25:25.552Z,51.90
2019-04-29T17:27:59.201Z,53.10
2019-04-29T17:30:37.706Z,53.10
2019-04-29T17:33:05.227Z,52.60
2019-04-29T17:35:36.115Z,51.70
2019-04-29T17:38:05.329Z,53.40
2019-04-29T17:40:35.854Z,53.60
2019-04-29T17:43:09.443Z,54.60
2019-04-29T17:45:45.910Z,55.00
2019-04-29T17:48:18.259Z,54.80
2019-04-29T17:50:48.672Z,55.10
2019-04-29T17:53:19.697Z,55.80
2019-04-29T17:55:50.905Z,56.00
2019-04-29T17:58:21.536Z,55.50
2019-04-29T18:00:58.270Z,55.20
2019-04-29T18:03:43.690Z,54.90
2019-04-29T18:06:24.029Z,55.30
2019-04-29T18:08:52.647Z,55.80
2019-04-29T18:11:22.035Z,56.00
2019-04-29T18:13:52.543Z,55.80
2019-04-29T18:16:27.825Z,55.70
2019-04-29T18:19:01.873Z,56.80
2019-04-29T18:21:43.330Z,59.10
2019-04-29T18:24:22.863Z,61.20
2019-04-29T18:27:02.512Z,61.50
2019-04-29T18:29:34.801Z,63.90
2019-04-29T18:32:06.402Z,65.40
2019-04-29T18:34:33.680Z,67.10
2019-04-29T18:37:03.482Z,68.80
2019-04-29T18:39:33.611Z,71.80
2019-04-29T18:42:06.076Z,74.10
2019-04-29T18:44:33.441Z,76.40
2019-04-29T18:47:02.352Z,76.70
2019-04-29T18:49:31.301Z,77.00
2019-04-29T18:52:02.141Z,78.70
2019-04-29T18:54:30.745Z,79.50
2019-04-29T18:56:59.712Z,79.60
2019-04-29T18:59:33.254Z,80.80
2019-04-29T19:02:01.012Z,79.40
2019-04-29T19:04:31.249Z,81.00
2019-04-29T19:07:02.428Z,81.70
2019-04-29T19:09:35.714Z,82.60
2019-04-29T19:12:02.972Z,82.80
2019-04-29T19:14:31.885Z,83.00
2019-04-29T19:17:01.489Z,83.70
2019-04-29T19:19:34.892Z,83.90
2019-04-29T19:22:05.763Z,85.40
2019-04-29T19:24:36.439Z,85.40
2019-04-29T19:27:03.043Z,86.10
2019-04-29T19:29:33.276Z,86.00
2019-04-29T19:32:02.183Z,85.40
2019-04-29T19:34:42.293Z,86.70
2019-04-29T19:37:05.177Z,87.30
2019-04-29T19:39:34.920Z,87.80
2019-04-29T19:42:05.648Z,87.90
2019-04-29T19:44:36.689Z,87.80
2019-04-29T19:47:05.624Z,89.40
2019-04-29T19:49:35.999Z,89.00
2019-04-29T19:52:05.165Z,88.40
2019-04-29T19:54:34.067Z,88.90
2019-04-29T19:57:06.127Z,89.60
2019-04-29T19:59:36.067Z,89.30
2019-04-29T20:02:09.516Z,90.30
2019-04-29T20:04:40.597Z,90.30
2019-04-29T20:07:10.786Z,89.70
2019-04-29T20:09:41.452Z,90.00
2019-04-29T20:12:13.039Z,90.20
2019-04-29T20:14:43.352Z,90.30
2019-04-29T20:17:31.363Z,90.10
2019-04-29T20:20:02.870Z,89.80
2019-04-29T20:22:32.478Z,90.00
2019-04-29T20:25:01.908Z,90.50
2019-04-29T20:27:32.562Z,90.30
2019-04-29T20:30:02.056Z,89.90
2019-04-29T20:32:32.103Z,90.30
2019-04-29T20:35:06.902Z,90.20
2019-04-29T20:37:32.163Z,90.30
2019-04-29T20:40:01.337Z,90.10
2019-04-29T20:42:30.512Z,90.10
2019-04-29T20:44:59.581Z,90.20
2019-04-29T20:47:37.393Z,90.00
2019-04-29T20:49:59.697Z,90.50
2019-04-29T20:52:46.841Z,90.50
2019-04-29T20:55:16.468Z,90.50
2019-04-29T20:57:47.882Z,90.60
2019-04-29T21:00:20.184Z,90.70
2019-04-29T21:02:48.875Z,91.00
2019-04-29T21:05:23.257Z,91.10
2019-04-29T21:07:49.191Z,91.10
2019-04-29T21:10:18.667Z,90.70
2019-04-29T21:12:49.169Z,91.60
2019-04-29T21:15:31.580Z,91.30
2019-04-29T21:18:00.571Z,91.30
2019-04-29T21:20:29.474Z,91.30
2019-04-29T21:23:00.929Z,91.50
2019-04-29T21:25:29.522Z,91.30
2019-04-29T21:28:02.210Z,91.50
2019-04-29T21:30:35.411Z,91.30
2019-04-29T21:33:02.383Z,90.70
2019-04-29T21:35:42.011Z,90.80
2019-04-29T21:38:29.187Z,90.70
2019-04-29T21:40:59.746Z,90.80
2019-04-29T21:43:39.023Z,90.70
2019-04-29T21:46:08.085Z,90.70
2019-04-29T21:48:37.477Z,91.20
2019-04-29T21:51:06.882Z,90.70
2019-04-29T21:53:40.301Z,91.20
2019-04-29T21:56:09.424Z,90.90
2019-04-29T21:58:38.257Z,90.50
2019-04-29T22:01:08.133Z,90.60
2019-04-29T22:03:37.025Z,90.70
2019-04-29T22:06:05.929Z,90.40
2019-04-29T22:08:37.087Z,90.60
2019-04-29T22:11:07.015Z,90.50
2019-04-29T22:13:39.016Z,90.30
2019-04-29T22:16:07.114Z,90.60
2019-04-29T22:18:37.485Z,91.20
2019-04-29T22:21:09.752Z,90.80
2019-04-29T22:23:44.381Z,91.10
2019-04-29T22:26:11.127Z,91.30
2019-04-29T22:28:40.015Z,91.40
2019-04-29T22:31:08.986Z,91.40
2019-04-29T22:33:38.700Z,91.40
2019-04-29T22:36:10.166Z,91.40
2019-04-29T22:38:38.316Z,91.10
2019-04-29T22:41:11.910Z,91.50
2019-04-29T22:43:46.658Z,91.60
2019-04-29T22:46:17.456Z,91.60
2019-04-29T22:48:48.783Z,91.80
2019-04-29T22:51:18.812Z,91.90
2019-04-29T22:53:48.303Z,91.60
2019-04-29T22:56:17.403Z,91.50
2019-04-29T22:58:47.409Z,91.50
2019-04-29T23:01:17.754Z,91.70
2019-04-29T23:03:47.176Z,92.10
2019-04-29T23:06:16.734Z,91.90
2019-04-29T23:08:45.736Z,91.70
2019-04-29T23:11:14.633Z,91.60
2019-04-29T23:13:45.883Z,91.50
2019-04-29T23:16:15.775Z,91.80
2019-04-29T23:18:45.883Z,91.60
2019-04-29T23:21:28.838Z,91.50
2019-04-29T23:24:13.750Z,91.60
2019-04-29T23:26:42.248Z,91.40
2019-04-29T23:29:10.129Z,91.30
2019-04-29T23:31:39.072Z,91.00
2019-04-29T23:34:07.952Z,91.30
2019-04-29T23:36:37.453Z,91.60
2019-04-29T23:39:06.998Z,91.40
2019-04-29T23:41:36.717Z,91.40
2019-04-29T23:44:08.880Z,91.50
2019-04-29T23:46:36.508Z,91.60
2019-04-29T23:49:06.738Z,91.80
2019-04-29T23:51:37.813Z,91.80
2019-04-29T23:54:08.065Z,91.60
2019-04-29T23:57:02.987Z,91.80
2019-04-29T23:59:48.846Z,91.90
